Time;durP1;ratioP1;P1;durP2;ratioP2;P2;SDS_P1;SDS_P2;PMS_P1;PMS_P2;Temp;Humidity;BMP_temperature;BMP_pressure;BME280_temperature;BME280_humidity;BME280_pressure;Samples;Min_cycle;Max_cycle;Signal;HPM_P1;HPM_P2
2024/04/19 00:01:18;;;;;;;1.87;1.10;;;7.80;99.90;;;;;;4428326;32;20057;-63
2024/04/19 00:03:44;;;;;;;0.30;0.30;;;7.80;99.90;;;;;;4427889;32;20080;-62
2024/04/19 00:06:10;;;;;;;0.30;0.30;;;7.80;99.90;;;;;;4428063;32;20140;-62
2024/04/19 00:08:36;;;;;;;0.28;0.28;;;7.70;99.90;;;;;;4427219;32;20069;-62
2024/04/19 00:11:02;;;;;;;0.30;0.30;;;7.80;99.90;;;;;;4424136;32;20069;-63
2024/04/19 00:13:28;;;;;;;0.30;0.30;;;7.80;99.90;;;;;;4428341;32;20073;-63
2024/04/19 00:15:56;;;;;;;0.30;0.30;;;7.80;99.90;;;;;;4413415;32;20545;-63
2024/04/19 00:18:23;;;;;;;0.20;0.20;;;7.80;99.90;;;;;;4424764;32;20084;-63
2024/04/19 00:20:48;;;;;;;0.30;0.30;;;7.70;99.90;;;;;;4429518;32;20560;-63
2024/04/19 00:23:14;;;;;;;2.08;1.25;;;7.70;99.90;;;;;;4427361;32;20161;-63
2024/04/19 00:25:39;;;;;;;0.60;0.60;;;7.70;99.90;;;;;;4424926;32;20081;-64
2024/04/19 00:28:05;;;;;;;0.30;0.30;;;7.70;99.90;;;;;;4428479;32;20439;-63
2024/04/19 00:30:31;;;;;;;0.30;0.30;;;7.70;99.90;;;;;;4426036;32;20057;-63
2024/04/19 00:32:56;;;;;;;0.32;0.32;;;7.70;99.90;;;;;;4428065;32;20086;-62
2024/04/19 00:35:22;;;;;;;0.30;0.30;;;7.70;99.90;;;;;;4420443;32;20070;-63
2024/04/19 00:37:47;;;;;;;0.60;0.60;;;7.70;99.90;;;;;;4428946;32;20528;-63
2024/04/19 00:40:13;;;;;;;0.30;0.30;;;7.70;99.90;;;;;;4428734;32;20112;-63
2024/04/19 00:42:39;;;;;;;1.27;1.15;;;7.70;99.90;;;;;;4426510;32;20079;-62
2024/04/19 00:45:25;;;;;;;0.30;0.30;;;7.70;99.90;;;;;;4427748;32;20107;-63
2024/04/19 00:47:51;;;;;;;0.20;0.20;;;7.60;99.90;;;;;;4424996;32;20062;-63
2024/04/19 00:50:16;;;;;;;0.40;0.40;;;7.70;99.90;;;;;;4426375;32;20066;-63
2024/04/19 00:52:43;;;;;;;0.73;0.73;;;7.70;99.90;;;;;;4426504;32;20073;-63
2024/04/19 00:55:08;;;;;;;1.08;0.68;;;7.60;99.90;;;;;;4433047;32;20086;-62
2024/04/19 00:57:34;;;;;;;1.65;1.17;;;7.60;99.90;;;;;;4436222;32;20065;-62
2024/04/19 01:00:02;;;;;;;4.22;1.17;;;7.70;99.90;;;;;;4435099;32;20475;-61
2024/04/19 01:02:28;;;;;;;0.35;0.35;;;7.80;99.90;;;;;;4435664;32;20100;-62
2024/04/19 01:04:54;;;;;;;0.30;0.30;;;7.90;99.90;;;;;;4433784;32;20082;-62
2024/04/19 01:07:20;;;;;;;0.55;0.55;;;7.90;99.90;;;;;;4436378;32;20081;-63
2024/04/19 01:09:47;;;;;;;0.35;0.35;;;7.90;99.90;;;;;;4435012;32;20093;-62
2024/04/19 01:12:13;;;;;;;0.20;0.20;;;7.90;99.90;;;;;;4436648;32;20085;-62
2024/04/19 01:14:38;;;;;;;0.30;0.30;;;7.70;99.90;;;;;;4433406;32;20069;-62
2024/04/19 01:17:04;;;;;;;3.97;0.80;;;7.60;99.90;;;;;;4436688;32;20131;-63
2024/04/19 01:19:30;;;;;;;0.30;0.30;;;7.60;99.90;;;;;;4435073;32;20068;-64
2024/04/19 01:21:56;;;;;;;0.43;0.43;;;7.60;99.90;;;;;;4437125;32;20089;-63
2024/04/19 01:24:33;;;;;;;0.40;0.40;;;7.70;99.90;;;;;;4434994;32;20089;-62
2024/04/19 01:26:59;;;;;;;0.32;0.32;;;7.70;99.90;;;;;;4433950;32;20085;-62
2024/04/19 01:29:25;;;;;;;0.60;0.60;;;7.70;99.90;;;;;;4436417;32;20065;-62
2024/04/19 01:31:50;;;;;;;0.30;0.30;;;7.70;99.90;;;;;;4435903;32;20073;-63
2024/04/19 01:34:16;;;;;;;0.25;0.25;;;7.70;99.90;;;;;;4434558;32;20073;-62
2024/04/19 01:36:41;;;;;;;0.50;0.50;;;7.70;99.90;;;;;;4434618;32;20077;-62
2024/04/19 01:39:07;;;;;;;0.28;0.28;;;7.70;99.90;;;;;;4427212;32;20062;-60
2024/04/19 01:41:33;;;;;;;0.35;0.35;;;7.80;99.90;;;;;;4436391;32;20076;-63
2024/04/19 01:43:59;;;;;;;0.30;0.30;;;7.80;99.90;;;;;;4435317;32;20422;-62
2024/04/19 01:46:24;;;;;;;0.30;0.30;;;7.80;99.90;;;;;;4433253;32;20536;-62
2024/04/19 01:48:50;;;;;;;0.32;0.32;;;7.60;99.90;;;;;;4435678;32;20073;-63
2024/04/19 01:51:15;;;;;;;0.30;0.30;;;7.50;99.90;;;;;;4436629;32;20115;-62
2024/04/19 01:53:41;;;;;;;0.37;0.37;;;7.50;99.90;;;;;;4434223;32;20529;-63
2024/04/19 01:56:06;;;;;;;0.88;0.37;;;7.60;99.90;;;;;;4435325;32;20081;-62
2024/04/19 01:58:32;;;;;;;0.35;0.35;;;7.50;99.90;;;;;;4434864;32;20077;-62
2024/04/19 02:00:58;;;;;;;0.45;0.45;;;7.50;99.90;;;;;;4433937;32;20456;-62
2024/04/19 02:03:23;;;;;;;0.20;0.20;;;7.50;99.90;;;;;;4434449;32;20057;-62
2024/04/19 02:05:49;;;;;;;0.40;0.40;;;7.60;99.90;;;;;;4435674;32;20574;-62
2024/04/19 02:08:14;;;;;;;0.20;0.20;;;7.70;99.90;;;;;;4433201;32;20450;-61
2024/04/19 02:10:40;;;;;;;0.37;0.37;;;7.70;99.90;;;;;;4435652;32;20072;-63
2024/04/19 02:13:05;;;;;;;0.85;0.85;;;7.50;99.90;;;;;;4435676;32;20065;-62
2024/04/19 02:15:31;;;;;;;0.30;0.30;;;7.50;99.90;;;;;;4433422;32;20086;-62
2024/04/19 02:17:57;;;;;;;0.30;0.30;;;7.50;99.90;;;;;;4434140;32;20402;-60
2024/04/19 02:20:22;;;;;;;0.30;0.30;;;7.60;99.90;;;;;;4432606;32;20081;-62
2024/04/19 02:22:48;;;;;;;0.30;0.30;;;7.50;99.90;;;;;;4433636;32;20209;-62
2024/04/19 02:25:13;;;;;;;11.27;0.90;;;7.50;99.90;;;;;;4435347;32;20549;-61
2024/04/19 02:30:59;;;;;;;0.40;0.40;;;7.50;99.90;;;;;;4426890;32;20552;-62
2024/04/19 02:33:10;;;;;;;0.40;0.40;;;7.40;99.90;;;;;;4426847;32;20496;-62
2024/04/19 02:35:35;;;;;;;0.40;0.40;;;7.40;99.90;;;;;;4433796;32;20057;-62
2024/04/19 02:38:01;;;;;;;0.20;0.20;;;7.30;99.90;;;;;;4434657;32;20536;-63
2024/04/19 02:40:27;;;;;;;0.22;0.22;;;7.30;99.90;;;;;;4434290;32;20061;-62
2024/04/19 02:42:52;;;;;;;0.28;0.28;;;7.30;99.90;;;;;;4436129;32;20132;-62
2024/04/19 02:45:18;;;;;;;0.40;0.40;;;7.30;99.90;;;;;;4435372;32;20081;-62
2024/04/19 02:47:43;;;;;;;1.85;1.15;;;7.30;99.90;;;;;;4434721;32;20068;-62
2024/04/19 02:50:09;;;;;;;0.40;0.40;;;7.30;99.90;;;;;;4436805;32;20111;-62
2024/04/19 02:52:35;;;;;;;0.62;0.57;;;7.30;99.90;;;;;;4426780;32;20173;-62
2024/04/19 02:55:00;;;;;;;0.30;0.30;;;7.30;99.90;;;;;;4430936;32;20097;-62
2024/04/19 02:57:26;;;;;;;0.30;0.30;;;7.30;99.90;;;;;;4429917;32;20089;-62
2024/04/19 02:59:52;;;;;;;0.22;0.22;;;7.30;99.90;;;;;;4430167;32;20521;-62
2024/04/19 03:02:18;;;;;;;0.20;0.20;;;7.20;99.90;;;;;;4429150;32;20077;-63
2024/04/19 03:04:44;;;;;;;0.20;0.20;;;7.30;99.90;;;;;;4427782;32;20069;-62
2024/04/19 03:07:09;;;;;;;3.67;1.52;;;7.30;99.90;;;;;;4430318;32;20061;-62
2024/04/19 03:09:35;;;;;;;0.32;0.32;;;7.20;99.90;;;;;;4426929;32;20582;-63
2024/04/19 03:12:00;;;;;;;0.60;0.60;;;7.20;99.90;;;;;;4427899;32;20078;-62
2024/04/19 03:14:26;;;;;;;0.50;0.50;;;7.20;99.90;;;;;;4430069;32;20563;-63
2024/04/19 03:16:52;;;;;;;0.73;0.73;;;7.20;99.90;;;;;;4428695;32;20080;-63
2024/04/19 03:19:17;;;;;;;0.50;0.50;;;7.20;99.90;;;;;;4429536;32;20194;-62
2024/04/19 03:21:43;;;;;;;0.60;0.60;;;7.20;99.90;;;;;;4430033;32;20136;-63
2024/04/19 03:24:08;;;;;;;0.30;0.30;;;7.20;99.90;;;;;;4429340;32;20139;-62
2024/04/19 03:26:34;;;;;;;5.68;1.83;;;7.10;99.90;;;;;;4425670;32;20116;-63
2024/04/19 03:29:00;;;;;;;0.20;0.20;;;7.10;99.90;;;;;;4428710;32;20081;-63
2024/04/19 03:31:25;;;;;;;0.20;0.20;;;7.10;99.90;;;;;;4428926;32;20053;-62
2024/04/19 03:33:51;;;;;;;1.00;0.43;;;7.10;99.90;;;;;;4428391;32;20078;-62
2024/04/19 03:36:17;;;;;;;0.32;0.32;;;7.10;99.90;;;;;;4428512;32;20520;-62
2024/04/19 03:38:42;;;;;;;0.30;0.30;;;7.20;99.90;;;;;;4426565;32;20136;-62
2024/04/19 03:41:08;;;;;;;0.47;0.47;;;7.20;99.90;;;;;;4427046;32;20589;-61
2024/04/19 03:43:40;;;;;;;0.30;0.30;;;7.10;99.90;;;;;;4429966;32;20062;-60
2024/04/19 03:46:06;;;;;;;0.40;0.40;;;7.10;99.90;;;;;;4428549;32;21301;-61
2024/04/19 03:48:31;;;;;;;0.30;0.30;;;7.10;99.90;;;;;;4422837;32;20085;-61
2024/04/19 03:50:57;;;;;;;1.05;0.95;;;7.00;99.90;;;;;;4427048;32;20143;-62
2024/04/19 03:53:22;;;;;;;0.40;0.40;;;7.00;99.90;;;;;;4429626;32;20552;-60
2024/04/19 03:55:48;;;;;;;0.30;0.30;;;7.00;99.90;;;;;;4427348;32;20114;-61
2024/04/19 03:58:14;;;;;;;0.20;0.20;;;6.90;99.90;;;;;;4437192;32;20115;-62
2024/04/19 04:00:39;;;;;;;0.30;0.30;;;7.00;99.90;;;;;;4436196;32;20575;-60
2024/04/19 04:03:06;;;;;;;0.35;0.35;;;7.00;99.90;;;;;;4438357;32;20085;-60
2024/04/19 04:05:33;;;;;;;0.20;0.20;;;6.90;99.90;;;;;;4412784;32;20072;-61
2024/04/19 04:07:59;;;;;;;0.30;0.30;;;6.90;99.90;;;;;;4437859;32;20089;-61
2024/04/19 04:10:24;;;;;;;0.73;0.73;;;6.90;99.90;;;;;;4437859;32;20073;-61
2024/04/19 04:12:50;;;;;;;0.30;0.30;;;6.90;99.90;;;;;;4437023;32;20081;-62
2024/04/19 04:15:16;;;;;;;0.47;0.47;;;7.00;99.90;;;;;;4438007;32;20065;-63
2024/04/19 04:17:41;;;;;;;0.37;0.37;;;6.90;99.90;;;;;;4436031;32;20085;-62
2024/04/19 04:20:08;;;;;;;0.52;0.40;;;6.80;99.90;;;;;;4427650;32;20074;-62
2024/04/19 04:22:33;;;;;;;0.30;0.30;;;6.90;99.90;;;;;;4416955;32;20424;-60
2024/04/19 04:24:59;;;;;;;0.30;0.30;;;6.90;99.90;;;;;;4435853;32;20085;-60
2024/04/19 04:27:24;;;;;;;1.00;0.80;;;6.90;99.90;;;;;;4438714;32;20115;-62
2024/04/19 04:29:50;;;;;;;0.80;0.80;;;6.90;99.90;;;;;;4437395;32;20329;-62
2024/04/19 04:32:15;;;;;;;0.55;0.52;;;6.90;99.90;;;;;;4437478;32;20080;-61
2024/04/19 04:34:41;;;;;;;0.93;0.93;;;6.90;99.90;;;;;;4437376;32;20077;-60
2024/04/19 04:37:07;;;;;;;0.62;0.62;;;7.10;99.90;;;;;;4437327;32;20146;-61
2024/04/19 04:42:00;;;;;;;0.77;0.77;;;7.10;99.90;;;;;;4426979;32;20101;-61
2024/04/19 04:44:32;;;;;;;0.30;0.30;;;7.10;99.90;;;;;;4427029;32;21149;-60
2024/04/19 04:46:59;;;;;;;0.45;0.45;;;7.10;99.90;;;;;;4439053;32;20147;-62
2024/04/19 04:49:25;;;;;;;11.43;0.73;;;7.00;99.90;;;;;;4434955;32;20453;-60
2024/04/19 04:51:50;;;;;;;0.40;0.40;;;7.00;99.90;;;;;;4432814;32;20070;-62
2024/04/19 04:54:16;;;;;;;0.32;0.32;;;7.10;99.90;;;;;;4436941;32;20061;-63
2024/04/19 04:56:41;;;;;;;0.30;0.30;;;7.10;99.90;;;;;;4435660;32;20533;-62
2024/04/19 04:59:07;;;;;;;0.60;0.60;;;7.10;99.90;;;;;;4429162;32;20078;-62
2024/04/19 05:01:33;;;;;;;0.50;0.50;;;7.20;99.90;;;;;;4434415;32;20073;-62
2024/04/19 05:03:58;;;;;;;0.35;0.35;;;7.10;99.90;;;;;;4435274;32;20126;-61
2024/04/19 05:06:24;;;;;;;0.37;0.37;;;7.20;99.90;;;;;;4421653;32;20125;-62
2024/04/19 05:08:50;;;;;;;0.40;0.40;;;7.20;99.90;;;;;;4431858;32;20056;-62
2024/04/19 05:11:15;;;;;;;0.40;0.40;;;7.20;99.90;;;;;;4435295;32;21153;-62
2024/04/19 05:13:41;;;;;;;3.47;1.65;;;7.10;99.90;;;;;;4422112;32;20089;-62
2024/04/19 05:16:07;;;;;;;0.30;0.30;;;7.20;99.90;;;;;;4430178;32;20077;-62
2024/04/19 05:18:33;;;;;;;0.40;0.40;;;7.20;99.90;;;;;;4432881;32;20335;-61
2024/04/19 05:20:58;;;;;;;0.43;0.43;;;7.20;99.90;;;;;;4423843;32;20536;-61
2024/04/19 05:23:24;;;;;;;0.62;0.62;;;7.20;99.90;;;;;;4428058;32;20069;-62
2024/04/19 05:25:50;;;;;;;1.05;0.62;;;7.20;99.90;;;;;;4426079;32;20074;-62
2024/04/19 05:28:17;;;;;;;0.47;0.47;;;7.30;99.90;;;;;;4420489;32;20093;-62
2024/04/19 05:30:42;;;;;;;8.07;1.52;;;7.30;99.90;;;;;;4429989;32;20077;-62
2024/04/19 05:33:08;;;;;;;1.17;0.57;;;7.30;99.90;;;;;;4430257;32;20598;-61
2024/04/19 05:35:34;;;;;;;0.47;0.40;;;7.30;99.90;;;;;;4431239;32;20099;-60
2024/04/19 05:37:59;;;;;;;0.30;0.30;;;7.40;99.90;;;;;;4421093;32;20122;-63
2024/04/19 05:40:25;;;;;;;0.28;0.28;;;7.30;99.90;;;;;;4421203;32;20081;-61
2024/04/19 05:42:52;;;;;;;0.40;0.40;;;7.40;99.90;;;;;;4410961;32;20081;-61
2024/04/19 05:45:19;;;;;;;0.35;0.35;;;7.30;99.90;;;;;;4404569;32;20085;-63
2024/04/19 05:47:45;;;;;;;0.75;0.75;;;7.40;99.90;;;;;;4408076;32;20414;-64
2024/04/19 05:50:11;;;;;;;0.30;0.30;;;7.40;99.90;;;;;;4421700;32;20077;-60
2024/04/19 05:52:38;;;;;;;0.30;0.30;;;7.40;99.90;;;;;;4399786;32;20072;-62
2024/04/19 05:55:04;;;;;;;13.25;0.82;;;7.40;99.90;;;;;;4412714;32;20085;-63
2024/04/19 05:57:30;;;;;;;0.70;0.68;;;7.40;99.90;;;;;;4404250;32;20847;-63
2024/04/19 05:59:55;;;;;;;0.43;0.43;;;7.30;99.90;;;;;;4400325;32;21282;-62
2024/04/19 06:02:21;;;;;;;0.30;0.30;;;7.40;99.90;;;;;;4398321;32;20821;-63
2024/04/19 06:04:46;;;;;;;2.35;1.02;;;7.40;99.90;;;;;;4396543;32;21518;-63
2024/04/19 06:07:12;;;;;;;0.32;0.32;;;7.50;99.90;;;;;;4399661;32;20287;-63
2024/04/19 06:09:37;;;;;;;0.40;0.40;;;7.50;99.90;;;;;;4401976;32;21212;-63
2024/04/19 06:12:03;;;;;;;0.30;0.30;;;7.50;99.90;;;;;;4406848;32;20131;-65
2024/04/19 06:14:29;;;;;;;0.30;0.30;;;7.60;99.90;;;;;;4408602;32;20105;-63
2024/04/19 06:16:55;;;;;;;1.33;0.60;;;7.60;99.90;;;;;;4391406;32;20092;-62
2024/04/19 06:19:20;;;;;;;0.30;0.30;;;7.50;99.90;;;;;;4401799;32;20114;-63
2024/04/19 06:21:46;;;;;;;0.30;0.30;;;7.50;99.90;;;;;;4406753;32;20601;-63
2024/04/19 06:24:11;;;;;;;0.30;0.30;;;7.40;99.90;;;;;;4406811;32;20189;-63
2024/04/19 06:26:39;;;;;;;0.40;0.40;;;7.40;99.90;;;;;;4411684;32;20139;-63
2024/04/19 06:29:04;;;;;;;0.30;0.30;;;7.30;99.90;;;;;;4409695;32;21106;-63
2024/04/19 06:31:30;;;;;;;0.25;0.25;;;7.20;99.90;;;;;;4410634;32;20159;-62
2024/04/19 06:33:56;;;;;;;0.85;0.60;;;7.10;99.90;;;;;;4410841;32;20078;-63
2024/04/19 06:36:21;;;;;;;0.20;0.20;;;7.10;99.90;;;;;;4405375;32;20089;-64
2024/04/19 06:38:49;;;;;;;1.87;0.70;;;7.00;99.90;;;;;;4404626;32;20640;-63
2024/04/19 06:41:14;;;;;;;0.35;0.35;;;7.00;99.90;;;;;;4399795;32;20092;-63
2024/04/19 06:43:40;;;;;;;0.30;0.30;;;7.10;99.90;;;;;;4408529;32;20130;-63
2024/04/19 06:46:06;;;;;;;0.30;0.30;;;7.10;99.90;;;;;;4404346;32;20081;-63
2024/04/19 06:48:31;;;;;;;0.40;0.40;;;7.10;99.90;;;;;;4395697;32;20105;-63
2024/04/19 06:50:57;;;;;;;0.40;0.40;;;7.10;99.90;;;;;;4406089;32;20077;-63
2024/04/19 06:53:23;;;;;;;0.43;0.43;;;7.10;99.90;;;;;;4396882;32;21450;-64
2024/04/19 06:55:48;;;;;;;0.50;0.50;;;7.20;99.90;;;;;;4406393;32;20172;-63
2024/04/19 06:58:14;;;;;;;0.30;0.30;;;7.20;99.90;;;;;;4391625;32;20358;-63
2024/04/19 07:00:40;;;;;;;0.30;0.30;;;7.10;99.90;;;;;;4373863;32;21231;-63
2024/04/19 07:03:05;;;;;;;1.55;0.75;;;7.00;99.90;;;;;;4395038;32;20077;-63
2024/04/19 07:05:31;;;;;;;0.47;0.47;;;7.00;99.90;;;;;;4404506;32;20098;-63
2024/04/19 07:07:57;;;;;;;0.45;0.40;;;7.00;99.90;;;;;;4398279;32;20108;-63
2024/04/19 07:10:23;;;;;;;0.40;0.40;;;6.90;99.90;;;;;;4385257;32;20424;-63
2024/04/19 07:12:50;;;;;;;0.32;0.32;;;6.80;99.90;;;;;;4398753;32;20085;-63
2024/04/19 07:15:16;;;;;;;0.60;0.60;;;6.80;99.90;;;;;;4403538;32;20564;-63
2024/04/19 07:17:41;;;;;;;3.50;1.08;;;6.90;99.90;;;;;;4404978;32;20090;-63
2024/04/19 07:20:07;;;;;;;0.40;0.40;;;7.00;99.90;;;;;;4387486;32;20117;-63
2024/04/19 07:22:33;;;;;;;0.37;0.35;;;7.00;99.90;;;;;;4404397;32;20107;-63
2024/04/19 07:24:59;;;;;;;0.20;0.20;;;6.90;99.90;;;;;;4401660;32;20101;-62
2024/04/19 07:27:26;;;;;;;0.20;0.20;;;6.90;99.90;;;;;;4393942;32;20092;-63
2024/04/19 07:29:52;;;;;;;0.32;0.32;;;6.90;99.90;;;;;;4396786;32;20089;-62
2024/04/19 07:32:20;;;;;;;0.30;0.30;;;7.00;99.90;;;;;;4396176;32;20180;-63
2024/04/19 07:34:46;;;;;;;0.40;0.40;;;7.00;99.90;;;;;;4397559;32;20069;-63
2024/04/19 07:37:12;;;;;;;0.30;0.30;;;7.00;99.90;;;;;;4385413;32;20287;-63
2024/04/19 07:39:37;;;;;;;1.30;0.73;;;7.00;99.90;;;;;;4393599;32;20085;-64
2024/04/19 07:42:03;;;;;;;0.60;0.60;;;7.00;99.90;;;;;;4380796;32;20124;-63
2024/04/19 07:44:29;;;;;;;0.40;0.40;;;7.00;99.90;;;;;;4390496;32;20112;-64
2024/04/19 07:46:55;;;;;;;0.40;0.40;;;7.10;99.90;;;;;;4409643;32;20156;-64
2024/04/19 07:49:20;;;;;;;0.50;0.50;;;7.20;99.90;;;;;;4405423;32;20093;-63
2024/04/19 07:51:46;;;;;;;0.32;0.32;;;7.20;99.90;;;;;;4386613;32;20579;-64
2024/04/19 07:54:12;;;;;;;0.70;0.70;;;7.10;99.90;;;;;;4400771;32;20077;-63
2024/04/19 07:56:41;;;;;;;0.40;0.40;;;7.20;99.90;;;;;;4408224;32;20374;-63
2024/04/19 07:59:07;;;;;;;0.40;0.40;;;7.30;99.90;;;;;;4403808;32;20101;-64
2024/04/19 08:01:35;;;;;;;0.40;0.40;;;7.30;99.90;;;;;;4404161;32;20537;-64
2024/04/19 08:04:00;;;;;;;0.30;0.30;;;7.30;99.90;;;;;;4395194;32;20085;-63
2024/04/19 08:06:26;;;;;;;0.35;0.35;;;7.30;99.90;;;;;;4400195;32;20447;-64
2024/04/19 08:08:51;;;;;;;0.50;0.50;;;7.30;99.90;;;;;;4410206;32;20077;-63
2024/04/19 08:11:17;;;;;;;0.30;0.30;;;7.30;99.90;;;;;;4413747;32;20116;-61
2024/04/19 08:13:43;;;;;;;0.30;0.30;;;7.10;99.90;;;;;;4418056;32;21057;-63
2024/04/19 08:16:09;;;;;;;0.40;0.40;;;7.10;99.90;;;;;;4405016;32;20630;-63
2024/04/19 08:18:34;;;;;;;0.20;0.20;;;7.10;99.90;;;;;;4391783;32;20140;-63
2024/04/19 08:21:00;;;;;;;0.30;0.30;;;7.10;99.90;;;;;;4407093;32;20114;-63
2024/04/19 08:23:26;;;;;;;0.30;0.30;;;7.20;99.90;;;;;;4415764;32;20097;-62
2024/04/19 08:25:52;;;;;;;0.32;0.32;;;7.10;99.90;;;;;;4406438;32;20586;-64
2024/04/19 08:28:18;;;;;;;0.30;0.30;;;7.10;99.90;;;;;;4400266;32;20078;-63
2024/04/19 08:30:44;;;;;;;0.35;0.35;;;7.20;99.90;;;;;;4394576;32;20131;-64
2024/04/19 08:33:10;;;;;;;1.33;0.75;;;7.30;99.90;;;;;;4393803;32;20543;-63
2024/04/19 08:35:36;;;;;;;0.30;0.30;;;7.40;99.90;;;;;;4409219;32;20109;-63
2024/04/19 08:38:01;;;;;;;0.30;0.30;;;7.40;99.90;;;;;;4410484;32;20103;-63
2024/04/19 08:40:29;;;;;;;1.37;0.98;;;7.30;99.90;;;;;;4406444;32;20097;-63
2024/04/19 08:42:56;;;;;;;0.32;0.32;;;7.40;99.90;;;;;;4386851;32;20073;-63
2024/04/19 08:45:21;;;;;;;0.50;0.50;;;7.40;99.90;;;;;;4399310;32;20089;-63
2024/04/19 08:47:49;;;;;;;0.30;0.30;;;7.50;99.90;;;;;;4405386;32;20085;-63
2024/04/19 08:50:16;;;;;;;0.30;0.30;;;7.60;99.90;;;;;;4407309;32;20089;-62
2024/04/19 08:52:45;;;;;;;0.30;0.30;;;7.60;99.90;;;;;;4397892;32;20080;-64
2024/04/19 08:55:12;;;;;;;0.50;0.50;;;7.60;99.90;;;;;;4393699;32;20085;-64
2024/04/19 08:57:41;;;;;;;0.32;0.32;;;7.60;99.90;;;;;;4406851;32;20089;-65
2024/04/19 09:02:35;;;;;;;0.30;0.30;;;7.60;99.90;;;;;;4409760;32;20076;-63
2024/04/19 09:05:01;;;;;;;0.30;0.30;;;7.50;99.90;;;;;;4406292;32;21939;-64
2024/04/19 09:07:28;;;;;;;0.43;0.43;;;7.50;99.90;;;;;;4399153;32;20083;-65
2024/04/19 09:09:55;;;;;;;0.40;0.40;;;7.50;99.90;;;;;;4408254;32;21048;-65
2024/04/19 09:12:20;;;;;;;0.30;0.30;;;7.60;99.90;;;;;;4408648;32;20424;-64
2024/04/19 09:14:50;;;;;;;0.40;0.40;;;7.50;99.90;;;;;;4409107;32;20921;-63
2024/04/19 09:17:16;;;;;;;0.90;0.90;;;7.60;99.90;;;;;;4388146;32;20061;-64
2024/04/19 09:19:42;;;;;;;5.37;2.03;;;7.60;99.90;;;;;;4385015;32;20415;-64
2024/04/19 09:22:08;;;;;;;0.40;0.40;;;7.60;99.90;;;;;;4398820;32;21048;-64
2024/04/19 09:24:34;;;;;;;0.40;0.40;;;7.50;99.90;;;;;;4387775;32;20093;-65
2024/04/19 09:27:01;;;;;;;0.32;0.32;;;7.50;99.90;;;;;;4394560;32;20734;-64
2024/04/19 09:29:27;;;;;;;0.40;0.40;;;7.50;99.90;;;;;;4394269;32;20711;-64
2024/04/19 09:31:52;;;;;;;0.30;0.30;;;7.50;99.90;;;;;;4404265;32;20402;-65
2024/04/19 09:34:18;;;;;;;0.30;0.30;;;7.50;99.90;;;;;;4403535;32;20093;-65
2024/04/19 09:36:47;;;;;;;0.45;0.45;;;7.60;99.90;;;;;;4398539;32;20093;-65
2024/04/19 09:39:13;;;;;;;0.32;0.25;;;7.60;99.90;;;;;;4409665;32;20160;-65
2024/04/19 09:41:41;;;;;;;0.30;0.30;;;7.60;99.90;;;;;;4409053;32;20560;-65
2024/04/19 09:44:11;;;;;;;0.30;0.30;;;7.60;99.90;;;;;;4405426;32;20101;-65
2024/04/19 09:46:44;;;;;;;0.40;0.40;;;7.60;99.90;;;;;;4401562;32;20132;-65
2024/04/19 09:49:10;;;;;;;0.30;0.30;;;7.60;99.90;;;;;;4392574;32;20904;-65
2024/04/19 09:51:44;;;;;;;0.57;0.57;;;7.50;99.90;;;;;;4408230;32;20147;-65
2024/04/19 09:54:13;;;;;;;0.32;0.32;;;7.40;99.90;;;;;;4391881;32;20097;-65
2024/04/19 09:56:54;;;;;;;0.37;0.37;;;7.50;99.90;;;;;;4413963;32;20131;-66
2024/04/19 09:59:20;;;;;;;;;;;7.60;99.90;;;;;;4399614;32;20536;-65
2024/04/19 10:01:46;;;;;;;0.88;0.62;;;7.50;99.90;;;;;;4393440;32;20396;-64
2024/04/19 10:04:13;;;;;;;0.40;0.40;;;7.50;99.90;;;;;;4420404;32;20061;-62
2024/04/19 10:06:40;;;;;;;0.20;0.20;;;7.50;99.90;;;;;;4396256;32;20093;-64
2024/04/19 10:09:13;;;;;;;0.22;0.22;;;7.50;99.90;;;;;;4406113;32;20624;-64
2024/04/19 10:11:42;;;;;;;0.30;0.30;;;7.50;99.90;;;;;;4406739;32;20085;-64
2024/04/19 10:14:08;;;;;;;0.35;0.35;;;7.50;99.90;;;;;;4390248;32;20089;-64
2024/04/19 10:16:38;;;;;;;0.40;0.40;;;7.50;99.90;;;;;;4391576;32;20096;-64
2024/04/19 10:19:04;;;;;;;0.30;0.30;;;7.60;99.90;;;;;;4385052;32;20509;-64
2024/04/19 10:21:33;;;;;;;0.57;0.52;;;7.60;99.90;;;;;;4404778;32;20537;-62
2024/04/19 10:24:08;;;;;;;0.30;0.30;;;7.50;99.90;;;;;;4395788;32;20061;-64
2024/04/19 10:26:33;;;;;;;0.32;0.32;;;7.30;99.90;;;;;;4419099;32;20183;-65
2024/04/19 10:29:01;;;;;;;0.93;0.65;;;7.30;99.90;;;;;;4418342;32;20089;-63
2024/04/19 10:31:28;;;;;;;0.30;0.30;;;7.20;99.90;;;;;;4420201;32;20151;-64
2024/04/19 10:33:54;;;;;;;0.30;0.30;;;7.10;99.90;;;;;;4421744;32;20577;-63
2024/04/19 10:36:27;;;;;;;0.30;0.30;;;7.20;99.90;;;;;;4422478;32;20144;-63
2024/04/19 10:38:52;;;;;;;0.28;0.28;;;7.10;99.90;;;;;;4411992;32;20141;-65
2024/04/19 10:41:18;;;;;;;0.35;0.35;;;7.20;99.90;;;;;;4409991;32;20093;-64
2024/04/19 10:43:44;;;;;;;0.50;0.50;;;7.30;99.90;;;;;;4412610;32;20100;-64
2024/04/19 10:46:11;;;;;;;0.20;0.20;;;7.30;99.90;;;;;;4417530;32;20089;-65
2024/04/19 10:48:38;;;;;;;0.22;0.22;;;7.40;99.90;;;;;;4418123;32;20081;-65
2024/04/19 10:51:04;;;;;;;8.25;0.85;;;7.30;99.90;;;;;;4414991;32;20434;-63
2024/04/19 10:53:30;;;;;;;0.40;0.40;;;7.30;99.90;;;;;;4391882;32;20809;-64
2024/04/19 10:55:56;;;;;;;0.30;0.30;;;7.40;99.90;;;;;;4400748;32;20093;-63
2024/04/19 10:58:21;;;;;;;0.30;0.30;;;7.40;99.90;;;;;;4403833;32;20116;-64
2024/04/19 11:00:47;;;;;;;0.30;0.30;;;7.20;99.90;;;;;;4413970;32;20141;-64
2024/04/19 11:03:14;;;;;;;0.30;0.30;;;7.20;99.90;;;;;;4406771;32;20533;-63
2024/04/19 11:05:40;;;;;;;0.28;0.28;;;7.20;99.90;;;;;;4418015;32;20085;-63
2024/04/19 11:08:06;;;;;;;0.40;0.40;;;7.20;99.90;;;;;;4406681;32;20081;-65
2024/04/19 11:10:33;;;;;;;0.35;0.35;;;7.20;99.90;;;;;;4400553;32;20097;-65
2024/04/19 11:12:58;;;;;;;0.30;0.30;;;7.20;99.90;;;;;;4409789;32;20150;-63
2024/04/19 11:15:26;;;;;;;0.30;0.30;;;7.00;99.90;;;;;;4411694;32;20093;-63
2024/04/19 11:17:52;;;;;;;0.30;0.30;;;7.00;99.90;;;;;;4394593;32;20214;-64
2024/04/19 11:20:19;;;;;;;0.30;0.30;;;7.00;99.90;;;;;;4411357;32;20158;-63
2024/04/19 11:22:45;;;;;;;0.30;0.30;;;7.00;99.90;;;;;;4410891;32;20073;-63
2024/04/19 11:25:11;;;;;;;0.30;0.30;;;7.00;99.90;;;;;;4408206;32;20910;-63
2024/04/19 11:27:36;;;;;;;0.37;0.37;;;7.00;99.90;;;;;;4409977;32;20103;-63
2024/04/19 11:30:03;;;;;;;0.20;0.20;;;7.00;99.90;;;;;;4408855;32;20089;-63
2024/04/19 11:32:30;;;;;;;0.30;0.30;;;7.00;99.90;;;;;;4411290;32;20133;-63
2024/04/19 11:34:56;;;;;;;0.20;0.20;;;7.00;99.90;;;;;;4414913;32;21457;-65
2024/04/19 11:37:21;;;;;;;0.30;0.30;;;6.90;99.90;;;;;;4412928;32;20848;-64
2024/04/19 11:39:47;;;;;;;0.37;0.37;;;6.90;99.90;;;;;;4408391;32;20072;-64
2024/04/19 11:42:14;;;;;;;0.30;0.30;;;6.90;99.90;;;;;;4406437;32;20148;-64
2024/04/19 11:44:40;;;;;;;0.30;0.30;;;7.00;99.90;;;;;;4403682;32;20173;-65
2024/04/19 11:47:06;;;;;;;0.22;0.22;;;6.80;99.90;;;;;;4405022;32;20827;-65
2024/04/19 11:49:32;;;;;;;0.40;0.40;;;6.80;99.90;;;;;;4400936;32;20937;-64
2024/04/19 11:51:58;;;;;;;0.30;0.30;;;6.90;99.90;;;;;;4409172;32;20575;-64
2024/04/19 11:54:27;;;;;;;0.30;0.30;;;6.90;99.90;;;;;;4402462;32;117523;-63
2024/04/19 11:56:53;;;;;;;0.30;0.30;;;6.80;99.90;;;;;;4414748;32;20639;-63
2024/04/19 11:59:20;;;;;;;0.40;0.40;;;6.80;99.90;;;;;;4411565;32;20100;-63
2024/04/19 12:01:46;;;;;;;0.30;0.30;;;6.80;99.90;;;;;;4406499;32;20076;-62
2024/04/19 12:04:12;;;;;;;0.30;0.30;;;6.70;99.90;;;;;;4396934;32;20109;-63
2024/04/19 12:06:38;;;;;;;0.22;0.22;;;6.80;99.90;;;;;;4410500;32;20586;-63
2024/04/19 12:09:04;;;;;;;0.22;0.22;;;6.80;99.90;;;;;;4405956;32;21359;-63
2024/04/19 12:11:29;;;;;;;0.40;0.40;;;6.90;99.90;;;;;;4414212;32;20097;-64
2024/04/19 12:13:55;;;;;;;0.30;0.30;;;6.90;99.90;;;;;;4394907;32;20408;-63
2024/04/19 12:16:22;;;;;;;0.30;0.30;;;6.80;99.90;;;;;;4418531;32;20544;-62
2024/04/19 12:18:47;;;;;;;0.20;0.20;;;6.80;99.90;;;;;;4418427;32;20093;-63
2024/04/19 12:21:13;;;;;;;0.28;0.28;;;6.70;99.90;;;;;;4419717;32;20089;-63
2024/04/19 12:23:40;;;;;;;0.20;0.20;;;6.70;99.90;;;;;;4421202;32;20857;-63
2024/04/19 12:26:07;;;;;;;0.30;0.30;;;6.60;99.90;;;;;;4415506;32;20552;-63
2024/04/19 12:28:32;;;;;;;0.25;0.25;;;6.60;99.90;;;;;;4409057;32;20659;-64
2024/04/19 12:30:58;;;;;;;0.30;0.30;;;6.60;99.90;;;;;;4425642;32;20085;-62
2024/04/19 12:33:24;;;;;;;0.30;0.30;;;6.50;99.90;;;;;;4427219;32;20435;-62
2024/04/19 12:35:49;;;;;;;0.30;0.30;;;6.60;99.90;;;;;;4428174;32;20758;-62
2024/04/19 12:38:16;;;;;;;0.30;0.30;;;6.70;99.90;;;;;;4422337;32;21829;-63
2024/04/19 12:40:42;;;;;;;0.32;0.32;;;6.60;99.90;;;;;;4425895;32;20555;-63
2024/04/19 12:43:08;;;;;;;0.30;0.30;;;6.80;99.90;;;;;;4423132;32;20976;-63
2024/04/19 12:45:33;;;;;;;0.30;0.30;;;6.90;99.90;;;;;;4410562;32;20099;-63
2024/04/19 12:48:04;;;;;;;0.30;0.30;;;6.90;99.90;;;;;;4418201;32;20147;-63
2024/04/19 12:50:33;;;;;;;0.28;0.28;;;7.10;99.90;;;;;;4425402;32;20101;-64
2024/04/19 12:52:59;;;;;;;0.30;0.30;;;7.20;99.90;;;;;;4429755;32;20165;-63
2024/04/19 12:55:25;;;;;;;0.20;0.20;;;7.20;99.90;;;;;;4428694;32;20077;-63
2024/04/19 12:57:51;;;;;;;0.30;0.30;;;7.20;99.90;;;;;;4428938;32;20587;-63
2024/04/19 13:00:16;;;;;;;0.20;0.20;;;7.20;99.90;;;;;;4431980;32;20128;-64